Time;durP1;ratioP1;P1;durP2;ratioP2;P2;SDS_P1;SDS_P2;PMS_P1;PMS_P2;Temp;Humidity;BMP_temperature;BMP_pressure;BME280_temperature;BME280_humidity;BME280_pressure;Samples;Min_cycle;Max_cycle;Signal;HPM_P1;HPM_P2
2022/03/23 00:02:26;;;;;;;26.27;13.15;;;;;;;4.08;54.70;102653.03;5111969;27;20087;-75
2022/03/23 00:04:53;;;;;;;29.95;13.90;;;;;;;4.19;54.36;102651.38;5112922;27;20044;-75
2022/03/23 00:07:19;;;;;;;23.33;12.55;;;;;;;4.21;54.68;102647.91;5111148;27;20043;-75
2022/03/23 00:09:46;;;;;;;24.50;13.35;;;;;;;4.06;55.61;102641.81;5111940;27;20043;-75
2022/03/23 00:12:12;;;;;;;25.15;13.05;;;;;;;4.01;55.58;102641.78;5112740;27;20096;-75
2022/03/23 00:14:40;;;;;;;29.48;14.98;;;;;;;4.19;55.23;102635.78;5109958;27;20052;-75
2022/03/23 00:17:06;;;;;;;24.48;13.45;;;;;;;4.22;55.82;102635.81;5112177;28;20092;-75
2022/03/23 00:19:33;;;;;;;26.27;14.52;;;;;;;3.78;57.62;102649.41;5111720;27;20052;-75
2022/03/23 00:22:00;;;;;;;25.55;13.50;;;;;;;3.76;57.71;102645.09;5111649;27;20044;-75
2022/03/23 00:24:27;;;;;;;26.25;13.63;;;;;;;3.71;58.02;102655.41;5111408;27;20468;-75
2022/03/23 00:26:53;;;;;;;24.38;13.60;;;;;;;3.50;58.47;102659.59;5110439;27;20044;-75
2022/03/23 00:29:19;;;;;;;24.83;13.43;;;;;;;3.27;59.29;102649.03;5107650;27;20254;-75
2022/03/23 00:31:47;;;;;;;23.48;13.27;;;;;;;3.02;59.91;102652.25;5111814;28;20423;-75
2022/03/23 00:34:13;;;;;;;31.90;13.63;;;;;;;3.34;58.90;102654.28;5106742;28;20073;-75
2022/03/23 00:36:40;;;;;;;26.67;13.63;;;;;;;3.50;57.76;102652.69;5105328;27;20104;-75
2022/03/23 00:39:07;;;;;;;27.30;13.20;;;;;;;3.66;56.58;102643.28;5111409;27;20495;-75
2022/03/23 00:41:33;;;;;;;27.48;13.02;;;;;;;3.59;56.86;102644.94;5112694;28;20113;-75
2022/03/23 00:43:59;;;;;;;25.48;13.15;;;;;;;3.65;56.60;102644.13;5112081;27;20092;-75
2022/03/23 00:46:26;;;;;;;25.83;13.20;;;;;;;3.55;56.99;102642.34;5112189;27;20108;-75
2022/03/23 00:48:54;;;;;;;25.52;13.27;;;;;;;3.47;56.73;102638.81;5111094;27;20387;-75
2022/03/23 00:51:21;;;;;;;24.38;13.73;;;;;;;3.45;57.01;102641.38;5107799;27;20119;-75
2022/03/23 00:53:47;;;;;;;30.83;13.88;;;;;;;3.42;57.07;102647.44;5111849;28;20051;-75
2022/03/23 00:56:14;;;;;;;27.48;13.60;;;;;;;3.43;57.04;102644.00;5111516;28;20069;-75
2022/03/23 00:58:40;;;;;;;26.30;13.27;;;;;;;3.60;56.55;102644.09;5111077;28;20130;-75
2022/03/23 01:01:07;;;;;;;25.90;13.38;;;;;;;3.67;56.33;102639.81;5111135;27;20035;-75
2022/03/23 01:03:33;;;;;;;27.40;13.50;;;;;;;3.65;56.50;102636.34;5111933;27;20101;-75
2022/03/23 01:06:01;;;;;;;26.23;13.82;;;;;;;3.71;56.53;102631.19;5110664;28;20040;-75
2022/03/23 01:08:27;;;;;;;27.00;14.20;;;;;;;3.73;56.82;102642.47;5106347;28;20048;-75
2022/03/23 01:10:54;;;;;;;30.30;14.35;;;;;;;3.66;57.14;102638.09;5109153;27;20144;-75
2022/03/23 01:13:20;;;;;;;26.70;13.63;;;;;;;3.63;57.34;102631.16;5104079;28;20040;-75
2022/03/23 01:15:46;;;;;;;31.52;14.57;;;;;;;3.64;57.11;102629.41;5098838;28;20050;-75
2022/03/23 01:18:13;;;;;;;22.83;13.05;;;;;;;3.47;57.36;102626.72;5109941;28;20491;-75
2022/03/23 01:20:39;;;;;;;28.73;14.32;;;;;;;3.40;57.33;102619.72;5109505;28;20056;-75
2022/03/23 01:23:07;;;;;;;29.52;14.35;;;;;;;3.30;57.17;102628.28;5110176;27;20040;-75
2022/03/23 01:25:33;;;;;;;29.92;13.27;;;;;;;3.39;57.68;102628.38;5110905;27;20101;-75
2022/03/23 01:28:00;;;;;;;27.85;14.35;;;;;;;3.28;58.24;102632.63;5105782;27;20047;-75
2022/03/23 01:30:26;;;;;;;29.80;15.20;;;;;;;2.30;61.43;102638.50;5109510;27;20108;-75
2022/03/23 01:32:53;;;;;;;27.70;14.38;;;;;;;2.46;61.48;102636.97;5111001;27;20080;-75
2022/03/23 01:35:20;;;;;;;27.23;14.35;;;;;;;3.14;58.83;102637.66;5111610;27;20044;-73
2022/03/23 01:37:46;;;;;;;30.38;14.95;;;;;;;3.34;57.71;102635.25;5111485;28;20044;-74
2022/03/23 01:40:14;;;;;;;30.00;15.13;;;;;;;3.02;59.11;102627.22;5104838;28;20425;-74
2022/03/23 01:42:41;;;;;;;26.77;14.57;;;;;;;2.65;59.70;102625.97;5111155;27;20090;-74
2022/03/23 01:45:09;;;;;;;30.42;14.13;;;;;;;2.51;59.98;102642.22;5111334;28;20069;-74
2022/03/23 01:47:36;;;;;;;26.40;14.02;;;;;;;1.80;62.69;102643.00;5110712;28;20521;-74
2022/03/23 01:50:06;;;;;;;37.22;15.23;;;;;;;1.54;64.17;102636.56;5105497;27;20075;-74
2022/03/23 01:52:33;;;;;;;32.88;14.35;;;;;;;1.91;63.18;102636.28;5110933;27;20043;-74
2022/03/23 01:55:01;;;;;;;23.05;13.25;;;;;;;2.20;61.91;102634.06;5110907;27;20503;-74
2022/03/23 01:57:30;;;;;;;26.15;14.30;;;;;;;2.45;60.68;102632.63;5109220;27;20050;-74
2022/03/23 01:59:57;;;;;;;22.70;12.98;;;;;;;2.73;59.62;102623.47;5108970;28;20410;-74
2022/03/23 02:02:23;;;;;;;28.42;14.20;;;;;;;2.75;59.28;102622.63;5095282;28;20051;-74
2022/03/23 02:04:50;;;;;;;27.70;14.88;;;;;;;2.78;58.15;102619.19;5110263;28;20068;-74
2022/03/23 02:07:16;;;;;;;25.50;14.27;;;;;;;2.84;58.10;102620.13;5110104;28;20067;-74
2022/03/23 02:09:42;;;;;;;27.50;13.73;;;;;;;2.90;58.25;102619.31;5106815;28;20047;-74
2022/03/23 02:12:11;;;;;;;24.60;13.85;;;;;;;2.67;59.87;102625.97;5109066;27;20048;-74
2022/03/23 02:14:39;;;;;;;30.35;15.05;;;;;;;2.82;59.45;102628.72;5108717;28;20054;-74
2022/03/23 02:17:06;;;;;;;30.08;15.20;;;;;;;2.78;59.94;102627.81;5110681;27;20460;-74
2022/03/23 02:19:33;;;;;;;29.33;15.02;;;;;;;2.81;59.89;102611.44;5108360;27;20044;-74
2022/03/23 02:22:02;;;;;;;31.10;15.07;;;;;;;2.51;61.62;102617.19;5110197;28;20051;-74
2022/03/23 02:24:31;;;;;;;35.15;15.23;;;;;;;2.52;61.82;102615.44;5109388;28;20043;-74
2022/03/23 02:26:58;;;;;;;35.30;15.30;;;;;;;2.41;62.14;102611.00;5109470;28;20116;-74
2022/03/23 02:29:32;;;;;;;30.70;15.70;;;;;;;2.24;63.75;102619.44;5102897;28;20101;-74
2022/03/23 02:32:00;;;;;;;30.80;14.60;;;;;;;2.34;64.15;102608.34;5101847;28;20036;-74
2022/03/23 02:34:27;;;;;;;34.15;14.85;;;;;;;2.31;64.78;102611.75;5109814;28;20047;-74
2022/03/23 02:36:54;;;;;;;29.13;15.23;;;;;;;2.34;64.79;102614.38;5104264;28;20052;-74
2022/03/23 02:39:22;;;;;;;30.95;15.77;;;;;;;2.58;63.59;102613.81;5108465;28;20043;-75
2022/03/23 02:41:48;;;;;;;28.92;14.45;;;;;;;2.68;63.43;102609.59;5109065;28;20100;-74
2022/03/23 02:44:15;;;;;;;29.45;14.93;;;;;;;2.42;63.48;102611.88;5107826;28;20047;-74
2022/03/23 02:46:42;;;;;;;31.70;13.95;;;;;;;2.61;62.79;102618.16;5108866;27;20050;-75
2022/03/23 02:49:09;;;;;;;34.80;16.40;;;;;;;2.58;62.65;102612.94;5106364;28;20075;-75
2022/03/23 02:51:36;;;;;;;35.50;15.98;;;;;;;2.53;62.97;102618.06;5109243;28;20053;-75
2022/03/23 03:02:36;;;;;;;32.00;15.65;;;;;;;2.57;61.51;102611.19;5106185;28;20521;-75
2022/03/23 03:05:02;;;;;;;30.98;15.13;;;;;;;2.66;61.19;102606.97;5100412;28;20505;-75
2022/03/23 03:08:44;;;;;;;32.00;16.27;;;;;;;2.58;61.94;102612.94;5107804;28;20079;-75
2022/03/23 03:10:15;;;;;;;35.53;13.75;;;;;;;2.50;62.35;102619.75;5104566;28;20130;-74
2022/03/23 03:12:43;;;;;;;29.90;14.95;;;;;;;2.49;61.85;102618.00;5101755;28;20043;-75
2022/03/23 03:15:11;;;;;;;34.53;15.60;;;;;;;2.32;61.88;102620.41;5100593;28;20142;-75
2022/03/23 03:17:38;;;;;;;29.80;14.75;;;;;;;2.32;60.70;102625.59;5105294;28;20040;-75
2022/03/23 03:20:06;;;;;;;27.42;14.63;;;;;;;2.32;60.67;102618.69;5088615;28;20117;-75
2022/03/23 03:22:34;;;;;;;36.20;14.55;;;;;;;2.18;61.70;102616.78;5106142;28;20035;-75
2022/03/23 03:25:01;;;;;;;29.02;14.27;;;;;;;2.14;61.91;102620.19;5106239;28;20050;-75
2022/03/23 03:27:27;;;;;;;29.90;14.65;;;;;;;2.10;61.62;102623.56;5106088;28;20087;-75
2022/03/23 03:29:55;;;;;;;29.60;14.63;;;;;;;2.14;61.45;102622.78;5107783;28;20451;-75
2022/03/23 03:32:22;;;;;;;32.30;15.10;;;;;;;2.11;61.25;102614.94;5102606;27;20067;-75
2022/03/23 03:34:49;;;;;;;38.92;15.82;;;;;;;2.08;61.11;102617.50;5098361;28;20039;-75
2022/03/23 03:37:15;;;;;;;28.70;14.57;;;;;;;2.02;61.64;102617.44;5108395;28;20046;-75
2022/03/23 03:39:41;;;;;;;32.85;14.77;;;;;;;1.91;62.16;102610.41;5106513;28;20704;-75
2022/03/23 03:42:08;;;;;;;25.95;13.70;;;;;;;1.94;61.38;102617.31;5108340;28;20066;-75
2022/03/23 03:44:34;;;;;;;28.85;14.23;;;;;;;1.72;61.84;102630.81;5103830;28;20040;-75
2022/03/23 03:47:02;;;;;;;31.13;14.30;;;;;;;1.33;63.29;102631.91;5106482;28;20081;-75
2022/03/23 03:49:28;;;;;;;29.80;14.98;;;;;;;1.11;64.48;102636.72;5107995;28;20113;-75
2022/03/23 03:51:55;;;;;;;31.75;15.35;;;;;;;1.05;65.05;102628.84;5106075;28;20515;-75
2022/03/23 03:54:21;;;;;;;31.33;14.50;;;;;;;0.82;66.27;102625.84;5107544;28;20035;-75
2022/03/23 03:56:47;;;;;;;32.47;15.30;;;;;;;0.56;67.62;102627.94;5106753;28;20047;-75
2022/03/23 03:59:14;;;;;;;32.80;14.18;;;;;;;0.79;67.17;102630.97;5107082;28;20048;-75
2022/03/23 04:01:40;;;;;;;32.22;14.98;;;;;;;1.18;65.86;102633.41;5106998;28;20457;-75
2022/03/23 04:04:08;;;;;;;28.92;14.23;;;;;;;1.23;64.77;102629.16;5109381;28;20112;-75
2022/03/23 04:06:34;;;;;;;30.40;14.45;;;;;;;1.27;62.70;102633.53;5108786;28;20084;-75
2022/03/23 04:09:01;;;;;;;32.08;14.90;;;;;;;1.14;63.88;102635.06;5108213;28;20043;-75
2022/03/23 04:11:28;;;;;;;32.13;15.82;;;;;;;0.80;66.01;102630.13;5107131;28;20068;-75
2022/03/23 04:13:54;;;;;;;37.53;14.18;;;;;;;0.84;66.13;102637.97;5107665;28;20055;-75
2022/03/23 04:16:21;;;;;;;25.08;13.32;;;;;;;0.94;65.26;102636.41;5107539;28;20073;-75
2022/03/23 04:18:47;;;;;;;28.85;14.30;;;;;;;1.14;63.77;102644.53;5107944;28;20088;-75
2022/03/23 04:21:15;;;;;;;28.45;13.73;;;;;;;1.23;62.90;102637.78;5107929;28;20873;-75
2022/03/23 04:23:42;;;;;;;31.52;14.15;;;;;;;1.13;63.18;102633.31;5106553;28;20048;-75
2022/03/23 04:26:08;;;;;;;25.15;13.02;;;;;;;1.23;63.00;102637.78;5106298;28;20043;-75
2022/03/23 04:28:35;;;;;;;26.17;13.95;;;;;;;1.41;62.21;102639.78;5108069;28;20039;-75
2022/03/23 04:31:02;;;;;;;34.35;14.52;;;;;;;1.38;62.11;102637.16;5101166;28;20052;-75
2022/03/23 04:33:28;;;;;;;29.48;14.43;;;;;;;1.42;61.31;102639.81;5109867;28;20065;-75
2022/03/23 04:35:55;;;;;;;30.67;14.43;;;;;;;1.38;61.96;102632.88;5109777;28;20558;-75
2022/03/23 04:38:23;;;;;;;32.70;14.43;;;;;;;1.32;63.01;102637.94;5111537;27;20040;-75
2022/03/23 04:40:49;;;;;;;31.67;15.15;;;;;;;1.26;64.01;102639.53;5110597;28;20093;-75
2022/03/23 04:43:16;;;;;;;28.20;14.35;;;;;;;1.29;64.72;102642.19;5111547;27;20121;-75
2022/03/23 04:45:42;;;;;;;28.45;14.00;;;;;;;1.30;64.26;102644.78;5110271;28;20039;-75
2022/03/23 04:48:08;;;;;;;29.15;14.75;;;;;;;1.31;64.03;102637.91;5111103;28;20047;-75
2022/03/23 04:50:35;;;;;;;29.13;13.95;;;;;;;1.36;63.86;102638.88;5110135;28;20507;-75
2022/03/23 04:53:01;;;;;;;34.67;14.15;;;;;;;1.42;62.57;102631.19;5110523;27;20101;-75
2022/03/23 04:55:29;;;;;;;27.67;13.75;;;;;;;1.34;61.93;102638.81;5107803;28;20051;-75
2022/03/23 04:57:56;;;;;;;35.38;15.57;;;;;;;1.29;63.22;102637.91;5110560;28;20040;-75
2022/03/23 05:00:23;;;;;;;29.55;13.48;;;;;;;1.33;63.50;102636.25;5110428;28;20036;-75
2022/03/23 05:02:49;;;;;;;28.65;13.60;;;;;;;1.35;62.36;102642.28;5105134;28;20428;-75
2022/03/23 05:05:16;;;;;;;26.17;12.77;;;;;;;1.50;62.00;102636.50;5093700;28;20233;-75
2022/03/23 05:07:44;;;;;;;24.27;13.10;;;;;;;1.61;61.94;102628.06;5096901;28;20476;-75
2022/03/23 05:10:12;;;;;;;28.05;13.95;;;;;;;1.60;62.56;102635.78;5109216;27;20047;-75
2022/03/23 05:12:42;;;;;;;25.20;13.65;;;;;;;1.66;62.58;102631.59;5107757;28;20233;-75
2022/03/23 05:15:09;;;;;;;23.25;13.65;;;;;;;1.77;62.29;102640.38;5111542;28;20113;-75
2022/03/23 05:17:36;;;;;;;26.77;13.65;;;;;;;1.72;62.84;102635.97;5111599;28;20128;-75
2022/03/23 05:20:04;;;;;;;25.45;13.73;;;;;;;1.61;63.22;102640.13;5109633;27;20108;-75
2022/03/23 05:22:31;;;;;;;30.33;13.80;;;;;;;1.59;63.64;102639.22;5108584;27;20044;-75
2022/03/23 05:24:59;;;;;;;31.65;14.18;;;;;;;1.55;63.74;102643.50;5109482;28;20040;-75
2022/03/23 05:27:25;;;;;;;28.60;13.25;;;;;;;1.34;64.67;102638.81;5110489;27;20040;-75
2022/03/23 05:29:53;;;;;;;28.35;13.68;;;;;;;1.21;64.95;102643.78;5110010;27;20105;-76
2022/03/23 05:32:20;;;;;;;26.40;13.23;;;;;;;1.23;63.91;102644.66;5108871;27;20039;-75
2022/03/23 05:34:46;;;;;;;26.70;14.25;;;;;;;1.30;64.53;102646.50;5110605;28;20048;-75
2022/03/23 05:37:13;;;;;;;28.58;13.57;;;;;;;1.53;64.17;102641.69;5110565;28;20420;-75
2022/03/23 05:39:40;;;;;;;31.27;14.73;;;;;;;1.73;63.86;102642.91;5109749;28;20044;-76
2022/03/23 05:42:07;;;;;;;30.10;14.98;;;;;;;1.61;63.35;102646.16;5109779;28;20112;-76
2022/03/23 05:44:34;;;;;;;30.20;14.30;;;;;;;1.65;63.13;102642.78;5107249;28;20066;-76
2022/03/23 05:47:03;;;;;;;31.20;15.38;;;;;;;1.42;64.43;102644.13;5099121;28;20554;-75
2022/03/23 05:49:29;;;;;;;30.77;14.02;;;;;;;1.33;65.17;102646.56;5084395;28;20075;-75
2022/03/23 05:51:56;;;;;;;28.73;14.80;;;;;;;1.20;65.50;102655.81;5089140;28;20047;-75
2022/03/23 05:54:22;;;;;;;33.00;15.63;;;;;;;1.20;66.17;102653.25;5088095;28;20515;-75
2022/03/23 05:56:49;;;;;;;29.45;15.88;;;;;;;1.44;66.17;102660.53;5085742;28;20113;-75
2022/03/23 05:59:16;;;;;;;30.23;15.05;;;;;;;1.92;65.47;102643.16;5076294;28;20044;-75
2022/03/23 06:01:42;;;;;;;29.75;15.18;;;;;;;2.58;64.12;102644.88;5084517;28;20044;-75
2022/03/23 06:04:10;;;;;;;28.30;15.82;;;;;;;2.62;63.54;102650.97;5070721;28;20045;-75
2022/03/23 06:06:36;;;;;;;30.52;15.88;;;;;;;2.94;63.40;102647.84;5070511;28;20055;-75
2022/03/23 06:09:03;;;;;;;30.60;15.85;;;;;;;3.18;62.71;102656.72;5106902;28;20618;-75
2022/03/23 06:11:29;;;;;;;27.80;15.75;;;;;;;3.64;61.14;102647.59;5108843;28;20044;-75
2022/03/23 06:13:57;;;;;;;31.35;16.13;;;;;;;3.95;59.88;102646.06;5109658;28;20044;-75
2022/03/23 06:16:23;;;;;;;37.78;16.50;;;;;;;3.65;60.55;102651.91;5109884;28;20039;-75
2022/03/23 06:18:50;;;;;;;31.60;15.77;;;;;;;4.05;59.14;102645.25;5100852;28;20040;-75
2022/03/23 06:21:18;;;;;;;29.48;15.80;;;;;;;4.23;58.91;102659.19;5108011;28;20043;-75
2022/03/23 06:23:44;;;;;;;24.98;15.88;;;;;;;4.46;57.61;102661.91;5104769;28;20757;-75
2022/03/23 06:26:10;;;;;;;28.17;15.75;;;;;;;5.09;55.87;102666.41;5099771;28;20043;-76
2022/03/23 06:28:37;;;;;;;28.17;16.48;;;;;;;5.71;54.20;102658.59;5097218;28;20048;-76
2022/03/23 06:31:03;;;;;;;29.15;16.67;;;;;;;5.62;54.79;102663.81;5095530;28;20097;-76
2022/03/23 06:33:29;;;;;;;34.58;15.98;;;;;;;5.90;54.03;102661.22;5095650;27;20044;-76
2022/03/23 06:35:56;;;;;;;29.58;16.67;;;;;;;6.90;50.83;102661.69;5106871;28;20101;-76
2022/03/23 06:38:24;;;;;;;33.03;16.05;;;;;;;7.49;51.35;102660.38;5093224;28;20140;-75
2022/03/23 06:40:50;;;;;;;25.88;16.13;;;;;;;8.28;47.67;102653.50;5102335;28;20096;-74
2022/03/23 06:43:16;;;;;;;47.72;17.73;;;;;;;8.83;46.33;102665.00;5104062;28;20061;-74
2022/03/23 06:45:44;;;;;;;28.70;17.77;;;;;;;9.17;47.33;102661.00;5107058;28;20055;-73
2022/03/23 06:48:10;;;;;;;33.38;16.73;;;;;;;9.46;45.58;102656.16;5101090;28;20043;-68
2022/03/23 06:50:37;;;;;;;34.50;17.15;;;;;;;9.53;44.58;102659.56;5109301;28;20063;-68
2022/03/23 06:53:04;;;;;;;39.25;17.33;;;;;;;9.70;45.86;102666.22;5101513;28;20054;-68
2022/03/23 06:55:31;;;;;;;30.92;18.85;;;;;;;9.66;45.60;102658.44;5093540;28;20044;-68
2022/03/23 06:57:58;;;;;;;41.50;23.70;;;;;;;10.02;46.41;102659.53;5096542;28;20491;-68
2022/03/23 07:00:24;;;;;;;27.20;17.92;;;;;;;10.17;46.33;102656.66;5106599;28;20392;-68
2022/03/23 07:02:51;;;;;;;30.98;18.25;;;;;;;10.54;46.81;102656.75;5108753;28;20085;-68
2022/03/23 07:05:19;;;;;;;28.02;18.15;;;;;;;10.64;46.05;102656.53;5096010;28;20039;-68
2022/03/23 07:10:27;;;;;;;28.15;17.20;;;;;;;11.10;46.12;102656.38;5090848;28;20044;-68
2022/03/23 07:12:55;;;;;;;29.33;17.15;;;;;;;11.24;46.45;102656.03;5088952;28;20043;-68
2022/03/23 07:15:21;;;;;;;28.85;17.40;;;;;;;11.16;45.47;102650.09;5088480;28;20036;-68
2022/03/23 07:17:48;;;;;;;30.90;17.75;;;;;;;11.31;43.99;102655.00;5099761;28;20063;-68
2022/03/23 07:20:14;;;;;;;31.00;17.55;;;;;;;11.74;42.19;102643.44;5103114;28;20069;-68
2022/03/23 07:22:40;;;;;;;33.00;16.55;;;;;;;12.32;37.11;102648.81;5108448;28;20063;-68
2022/03/23 07:25:07;;;;;;;34.22;18.58;;;;;;;12.65;38.17;102650.47;5105541;28;20154;-68
2022/03/23 07:27:34;;;;;;;29.15;18.67;;;;;;;12.76;37.79;102649.28;5091638;28;20039;-68
2022/03/23 07:30:02;;;;;;;30.77;19.33;;;;;;;12.98;36.96;102653.81;5108358;28;20039;-68
2022/03/23 07:32:28;;;;;;;26.17;16.58;;;;;;;13.00;37.70;102643.25;5108608;28;20507;-68
2022/03/23 07:34:54;;;;;;;27.23;17.55;;;;;;;13.42;38.17;102647.16;5109168;28;20043;-68
2022/03/23 07:37:21;;;;;;;29.85;17.90;;;;;;;13.57;36.05;102651.91;5109226;28;20067;-68
2022/03/23 07:39:47;;;;;;;33.05;18.98;;;;;;;13.87;34.71;102638.59;5107740;28;20100;-68
2022/03/23 07:42:14;;;;;;;33.78;17.02;;;;;;;14.14;37.07;102649.03;5096699;28;20605;-68
2022/03/23 07:44:40;;;;;;;30.58;16.58;;;;;;;14.49;35.25;102650.38;5088673;28;20407;-68
2022/03/23 07:47:10;;;;;;;28.88;17.23;;;;;;;14.77;34.02;102649.34;5107777;28;20070;-68
2022/03/23 07:49:37;;;;;;;27.25;16.55;;;;;;;14.95;35.43;102657.41;5098143;28;20495;-71
2022/03/23 07:52:04;;;;;;;29.35;16.60;;;;;;;14.81;34.12;102654.44;5088454;28;20400;-71
2022/03/23 07:54:31;;;;;;;25.75;16.73;;;;;;;15.23;33.69;102653.63;5092655;28;20396;-71
2022/03/23 07:56:58;;;;;;;33.20;17.40;;;;;;;14.56;34.60;102651.88;5096705;28;20044;-70
2022/03/23 07:59:24;;;;;;;29.63;17.08;;;;;;;14.72;36.73;102660.06;5103460;28;20059;-69
2022/03/23 08:01:51;;;;;;;28.33;17.58;;;;;;;15.08;37.12;102658.63;5093448;28;20051;-69
2022/03/23 08:04:18;;;;;;;29.88;17.15;;;;;;;15.34;33.22;102648.75;5107476;28;20069;-71
2022/03/23 08:06:45;;;;;;;28.48;16.45;;;;;;;15.56;33.77;102649.63;5104299;28;20047;-69
2022/03/23 08:09:11;;;;;;;22.85;16.60;;;;;;;15.63;33.25;102647.59;5091103;28;20070;-69
2022/03/23 08:11:38;;;;;;;24.08;17.15;;;;;;;16.17;31.52;102647.84;5098002;28;20043;-70
2022/03/23 08:14:04;;;;;;;28.10;16.60;;;;;;;16.14;32.23;102652.41;5112238;28;20508;-69
2022/03/23 08:16:30;;;;;;;27.65;17.70;;;;;;;16.73;30.55;102649.69;5107671;28;20445;-68
2022/03/23 08:18:57;;;;;;;24.55;16.85;;;;;;;16.89;31.70;102658.63;5103284;28;20048;-68
2022/03/23 08:21:26;;;;;;;28.27;16.48;;;;;;;17.16;28.60;102653.78;5111556;28;20047;-68
2022/03/23 08:23:53;;;;;;;25.98;16.67;;;;;;;16.46;31.16;102657.94;5098366;28;20044;-67
2022/03/23 08:26:19;;;;;;;21.35;15.68;;;;;;;16.40;31.92;102657.38;5099694;28;20044;-68
2022/03/23 08:28:47;;;;;;;25.35;16.45;;;;;;;16.91;32.80;102651.47;5090876;28;20066;-67
2022/03/23 08:31:15;;;;;;;22.88;16.50;;;;;;;17.28;31.23;102655.84;5092698;28;20044;-68
2022/03/23 08:33:41;;;;;;;21.75;16.05;;;;;;;17.49;29.64;102647.66;5092348;28;20047;-67
2022/03/23 08:36:09;;;;;;;24.92;16.00;;;;;;;17.88;30.03;102643.94;5095596;28;20125;-67
2022/03/23 08:38:37;;;;;;;23.00;16.52;;;;;;;18.29;29.12;102645.25;5111377;28;20070;-69
2022/03/23 08:41:05;;;;;;;23.48;16.05;;;;;;;18.03;28.82;102645.81;5113765;28;20046;-68
2022/03/23 08:43:31;;;;;;;32.05;16.83;;;;;;;18.55;25.97;102646.50;5092648;28;20071;-68
2022/03/23 08:45:59;;;;;;;31.13;16.95;;;;;;;18.24;28.65;102644.66;5091681;28;20047;-68
2022/03/23 08:48:26;;;;;;;24.98;16.77;;;;;;;18.28;30.44;102648.88;5092887;28;20036;-68
2022/03/23 08:50:53;;;;;;;29.08;17.17;;;;;;;18.32;28.86;102655.72;5092628;28;20040;-69
2022/03/23 08:53:20;;;;;;;23.48;16.40;;;;;;;18.46;28.40;102647.88;5111828;28;20278;-68
2022/03/23 08:55:48;;;;;;;29.27;16.27;;;;;;;18.46;27.19;102650.53;5108539;28;20073;-67
2022/03/23 08:58:14;;;;;;;22.63;16.38;;;;;;;18.36;27.10;102646.66;5113119;28;20043;-69
2022/03/23 09:00:41;;;;;;;27.10;15.95;;;;;;;18.20;27.19;102645.75;5109894;28;20104;-68
2022/03/23 09:03:08;;;;;;;23.88;16.52;;;;;;;19.30;26.11;102644.00;5112433;28;20052;-68
2022/03/23 09:05:34;;;;;;;32.63;17.45;;;;;;;20.13;25.94;102647.91;5100522;28;20047;-68
2022/03/23 09:08:02;;;;;;;25.65;17.60;;;;;;;19.13;29.68;102643.25;5095779;28;20039;-68
2022/03/23 09:10:28;;;;;;;27.75;17.05;;;;;;;19.41;26.29;102644.25;5112597;28;20082;-69
2022/03/23 09:12:57;;;;;;;30.70;17.02;;;;;;;19.18;30.15;102639.38;5104544;28;20047;-69
2022/03/23 09:15:24;;;;;;;25.92;17.02;;;;;;;19.17;29.51;102640.34;5112117;28;20392;-69
2022/03/23 09:17:50;;;;;;;30.02;17.13;;;;;;;20.20;25.90;102635.94;5111478;28;20050;-69
2022/03/23 09:20:17;;;;;;;25.98;18.02;;;;;;;20.14;25.18;102641.66;5083812;28;20074;-69
2022/03/23 09:22:44;;;;;;;25.08;17.20;;;;;;;20.09;28.23;102643.72;5111002;28;20043;-69
2022/03/23 09:25:13;;;;;;;29.88;17.90;;;;;;;18.99;27.56;102644.06;5111707;28;20047;-69
2022/03/23 09:27:43;;;;;;;27.90;17.15;;;;;;;18.58;28.17;102635.75;5090150;28;20063;-68
2022/03/23 09:30:13;;;;;;;29.02;17.92;;;;;;;19.07;31.02;102633.00;5090207;28;20036;-68
2022/03/23 09:32:40;;;;;;;23.98;16.83;;;;;;;20.14;31.06;102634.50;5111666;27;20431;-69
2022/03/23 09:35:08;;;;;;;27.02;17.27;;;;;;;19.97;28.13;102632.03;5111763;28;20039;-69
2022/03/23 09:37:49;;;;;;;23.05;16.83;;;;;;;21.02;26.65;102636.88;5111369;27;20055;-69
2022/03/23 09:40:19;;;;;;;28.08;17.55;;;;;;;21.01;24.35;102640.47;5105693;28;20040;-69
2022/03/23 09:42:46;;;;;;;24.92;16.85;;;;;;;21.42;24.69;102636.91;5108363;28;20056;-68
2022/03/23 09:45:21;;;;;;;34.55;16.40;;;;;;;21.74;26.23;102635.56;5111090;27;20487;-69
2022/03/23 09:47:48;;;;;;;25.35;16.85;;;;;;;22.23;23.97;102630.38;5109388;27;20130;-69
2022/03/23 09:50:14;;;;;;;28.20;16.38;;;;;;;21.66;25.58;102629.91;5108928;27;20043;-69
2022/03/23 09:52:40;;;;;;;25.05;17.13;;;;;;;21.72;23.05;102630.34;5108952;28;20097;-69
2022/03/23 09:55:07;;;;;;;34.83;17.60;;;;;;;22.10;24.87;102630.38;5110877;28;20051;-68
2022/03/23 09:57:34;;;;;;;22.83;16.83;;;;;;;22.01;25.68;102636.38;5110961;28;20097;-68
2022/03/23 10:00:00;;;;;;;25.58;16.77;;;;;;;22.05;24.76;102623.66;5110593;28;20043;-68
2022/03/23 10:03:24;;;;;;;29.73;18.38;;;;;;;21.74;23.83;102625.75;5111862;27;20088;-69
2022/03/23 10:06:26;;;;;;;27.88;17.60;;;;;;;22.30;23.44;102620.94;5112826;28;20075;-69
2022/03/23 10:09:12;;;;;;;34.17;17.02;;;;;;;22.69;25.69;102622.59;5097869;28;20543;-68
2022/03/23 10:12:17;;;;;;;22.65;16.92;;;;;;;22.65;25.48;102621.09;5134792;28;20019;-68
2022/03/23 10:15:41;;;;;;;23.20;16.33;;;;;;;23.15;21.97;102618.22;5112437;28;20047;-69
2022/03/23 10:18:39;;;;;;;24.40;16.33;;;;;;;23.23;21.68;102623.88;5110026;27;20065;-69
2022/03/23 10:21:07;;;;;;;29.40;17.27;;;;;;;23.51;24.50;102619.09;5110396;28;20055;-68
2022/03/23 10:23:33;;;;;;;22.08;16.40;;;;;;;23.42;22.94;102612.66;5110600;28;20044;-68
2022/03/23 10:26:11;;;;;;;34.30;15.90;;;;;;;23.09;22.57;102621.38;5110156;27;20115;-68
2022/03/23 10:28:37;;;;;;;24.58;16.45;;;;;;;23.47;23.17;102620.31;5110059;27;20047;-68
2022/03/23 10:31:15;;;;;;;25.95;16.83;;;;;;;23.16;22.43;102616.41;5109089;27;20047;-68
2022/03/23 10:33:42;;;;;;;22.42;16.73;;;;;;;22.49;25.76;102617.81;5104453;28;20045;-68
2022/03/23 10:36:09;;;;;;;28.15;17.08;;;;;;;22.71;22.36;102615.31;5106622;28;20140;-69
2022/03/23 10:38:39;;;;;;;29.65;17.75;;;;;;;22.74;27.02;102615.94;5108645;28;20496;-68
2022/03/23 10:41:10;;;;;;;29.85;17.33;;;;;;;23.03;21.28;102611.09;5108675;28;20476;-68
2022/03/23 10:43:38;;;;;;;28.63;18.00;;;;;;;22.67;25.00;102608.44;5109513;28;20045;-68
2022/03/23 10:46:08;;;;;;;30.45;16.58;;;;;;;22.71;25.16;102605.47;5110015;27;20074;-68
2022/03/23 10:48:34;;;;;;;26.50;16.73;;;;;;;22.78;22.65;102611.22;5109799;28;20407;-68
2022/03/23 10:51:02;;;;;;;24.02;17.13;;;;;;;23.15;25.46;102604.00;5106714;28;20062;-68
2022/03/23 10:53:32;;;;;;;27.42;16.95;;;;;;;23.88;23.52;102603.72;5100305;28;20052;-68
2022/03/23 10:55:59;;;;;;;25.98;17.88;;;;;;;23.21;21.56;102599.03;5105446;28;20046;-68
2022/03/23 10:58:27;;;;;;;25.17;17.35;;;;;;;23.02;22.79;102598.69;5100610;28;20412;-68
2022/03/23 11:00:59;;;;;;;23.92;16.98;;;;;;;23.20;21.26;102600.00;5109311;28;20392;-67
2022/03/23 11:03:37;;;;;;;;;;;;;;;23.36;22.11;102602.34;5109920;28;20043;-67
2022/03/23 11:06:06;;;;;;;28.25;17.95;;;;;;;23.28;27.17;102591.41;5109828;28;19949;-68
2022/03/23 11:08:33;;;;;;;26.27;17.30;;;;;;;23.61;25.26;102588.81;5109273;28;20119;-68
2022/03/23 11:16:31;;;;;;;24.77;18.17;;;;;;;23.90;21.87;102588.38;5109414;28;20094;-68
2022/03/23 11:18:58;;;;;;;25.80;17.55;;;;;;;24.15;20.23;102580.13;5108755;28;20043;-68
2022/03/23 11:21:28;;;;;;;25.45;17.88;;;;;;;23.94;22.12;102582.66;5099248;28;20098;-69
2022/03/23 11:23:55;;;;;;;30.90;17.65;;;;;;;23.66;25.42;102578.59;5089456;28;20046;-68
2022/03/23 11:26:22;;;;;;;22.63;17.02;;;;;;;23.82;22.06;102572.91;5107875;28;20044;-68
2022/03/23 11:28:49;;;;;;;25.52;18.25;;;;;;;24.04;23.68;102583.63;5099085;28;20071;-68
2022/03/23 11:31:16;;;;;;;27.05;18.23;;;;;;;23.58;19.52;102569.47;5109391;28;20476;-68
2022/03/23 11:33:46;;;;;;;24.48;16.58;;;;;;;24.05;24.68;102577.31;5109640;28;20042;-67
2022/03/23 11:36:13;;;;;;;28.58;17.45;;;;;;;24.39;24.67;102571.94;5109327;28;20104;-67